sensor_id;sensor_type;location;lat;lon;timestamp;P1;durP1;ratioP1;P2;durP2;ratioP2
16189;SDS011;41754;51.498;7.540;2023-12-20T00:01:21;24.13;;;19.20;;
16189;SDS011;41754;51.498;7.540;2023-12-20T00:03:50;20.53;;;17.17;;
16189;SDS011;41754;51.498;7.540;2023-12-20T00:06:18;20.47;;;17.10;;
16189;SDS011;41754;51.498;7.540;2023-12-20T00:08:46;22.27;;;17.87;;
16189;SDS011;41754;51.498;7.540;2023-12-20T00:11:14;19.37;;;16.30;;
16189;SDS011;41754;51.498;7.540;2023-12-20T00:13:43;21.03;;;16.67;;
16189;SDS011;41754;51.498;7.540;2023-12-20T00:16:16;20.93;;;16.80;;
16189;SDS011;41754;51.498;7.540;2023-12-20T00:18:44;18.20;;;15.17;;
16189;SDS011;41754;51.498;7.540;2023-12-20T00:21:12;18.10;;;15.30;;
16189;SDS011;41754;51.498;7.540;2023-12-20T00:23:40;18.90;;;16.13;;
16189;SDS011;41754;51.498;7.540;2023-12-20T00:26:08;20.57;;;16.63;;
16189;SDS011;41754;51.498;7.540;2023-12-20T00:28:36;21.13;;;16.30;;
16189;SDS011;41754;51.498;7.540;2023-12-20T00:31:05;20.07;;;16.90;;
16189;SDS011;41754;51.498;7.540;2023-12-20T00:33:34;21.47;;;16.93;;
16189;SDS011;41754;51.498;7.540;2023-12-20T00:36:02;21.47;;;17.83;;
16189;SDS011;41754;51.498;7.540;2023-12-20T00:38:30;22.63;;;18.30;;
16189;SDS011;41754;51.498;7.540;2023-12-20T00:40:58;20.73;;;17.20;;
16189;SDS011;41754;51.498;7.540;2023-12-20T00:43:26;22.30;;;17.70;;
16189;SDS011;41754;51.498;7.540;2023-12-20T00:45:54;20.77;;;16.30;;
16189;SDS011;41754;51.498;7.540;2023-12-20T00:48:23;21.63;;;16.13;;
16189;SDS011;41754;51.498;7.540;2023-12-20T00:50:53;21.27;;;14.50;;
16189;SDS011;41754;51.498;7.540;2023-12-20T00:53:21;16.40;;;13.17;;
16189;SDS011;41754;51.498;7.540;2023-12-20T00:55:49;17.70;;;13.53;;
16189;SDS011;41754;51.498;7.540;2023-12-20T00:58:17;17.90;;;13.03;;
16189;SDS011;41754;51.498;7.540;2023-12-20T01:00:45;14.97;;;10.97;;
16189;SDS011;41754;51.498;7.540;2023-12-20T01:03:13;14.27;;;10.80;;
16189;SDS011;41754;51.498;7.540;2023-12-20T01:05:43;16.33;;;9.40;;
16189;SDS011;41754;51.498;7.540;2023-12-20T01:08:11;13.30;;;9.10;;
16189;SDS011;41754;51.498;7.540;2023-12-20T01:10:39;10.07;;;8.37;;
16189;SDS011;41754;51.498;7.540;2023-12-20T01:13:07;13.87;;;7.67;;
16189;SDS011;41754;51.498;7.540;2023-12-20T01:15:35;12.73;;;7.57;;
16189;SDS011;41754;51.498;7.540;2023-12-20T01:18:03;13.97;;;8.00;;
16189;SDS011;41754;51.498;7.540;2023-12-20T01:20:32;13.27;;;7.57;;
16189;SDS011;41754;51.498;7.540;2023-12-20T01:23:01;12.53;;;6.97;;
16189;SDS011;41754;51.498;7.540;2023-12-20T01:25:29;13.53;;;6.47;;
16189;SDS011;41754;51.498;7.540;2023-12-20T01:27:57;8.73;;;6.53;;
16189;SDS011;41754;51.498;7.540;2023-12-20T01:30:25;15.40;;;6.87;;
16189;SDS011;41754;51.498;7.540;2023-12-20T01:32:53;12.67;;;6.63;;
16189;SDS011;41754;51.498;7.540;2023-12-20T01:35:21;11.87;;;6.43;;
16189;SDS011;41754;51.498;7.540;2023-12-20T01:37:49;9.10;;;5.53;;
16189;SDS011;41754;51.498;7.540;2023-12-20T01:40:19;12.10;;;6.17;;
16189;SDS011;41754;51.498;7.540;2023-12-20T01:42:47;12.93;;;6.03;;
16189;SDS011;41754;51.498;7.540;2023-12-20T01:45:15;13.33;;;5.97;;
16189;SDS011;41754;51.498;7.540;2023-12-20T01:47:43;11.03;;;5.43;;
16189;SDS011;41754;51.498;7.540;2023-12-20T01:50:11;7.10;;;5.17;;
16189;SDS011;41754;51.498;7.540;2023-12-20T01:52:39;8.97;;;5.43;;
16189;SDS011;41754;51.498;7.540;2023-12-20T01:55:09;12.43;;;5.97;;
16189;SDS011;41754;51.498;7.540;2023-12-20T01:57:41;10.93;;;5.30;;
16189;SDS011;41754;51.498;7.540;2023-12-20T02:00:11;14.47;;;5.60;;
16189;SDS011;41754;51.498;7.540;2023-12-20T02:02:40;12.93;;;5.83;;
16189;SDS011;41754;51.498;7.540;2023-12-20T02:05:08;9.23;;;5.00;;
16189;SDS011;41754;51.498;7.540;2023-12-20T02:07:37;9.83;;;5.20;;
16189;SDS011;41754;51.498;7.540;2023-12-20T02:10:05;9.63;;;5.27;;
16189;SDS011;41754;51.498;7.540;2023-12-20T02:12:34;9.90;;;6.03;;
16189;SDS011;41754;51.498;7.540;2023-12-20T02:15:03;9.67;;;5.47;;
16189;SDS011;41754;51.498;7.540;2023-12-20T02:17:32;9.80;;;5.03;;
16189;SDS011;41754;51.498;7.540;2023-12-20T02:20:02;12.63;;;5.40;;
16189;SDS011;41754;51.498;7.540;2023-12-20T02:22:31;11.30;;;5.13;;
16189;SDS011;41754;51.498;7.540;2023-12-20T02:24:59;15.03;;;5.63;;
16189;SDS011;41754;51.498;7.540;2023-12-20T02:27:28;10.73;;;4.90;;
16189;SDS011;41754;51.498;7.540;2023-12-20T02:29:57;15.10;;;5.60;;
16189;SDS011;41754;51.498;7.540;2023-12-20T02:32:25;8.93;;;4.80;;
16189;SDS011;41754;51.498;7.540;2023-12-20T02:34:54;10.40;;;5.20;;
16189;SDS011;41754;51.498;7.540;2023-12-20T02:37:23;12.03;;;5.27;;
16189;SDS011;41754;51.498;7.540;2023-12-20T02:39:52;13.63;;;5.77;;
16189;SDS011;41754;51.498;7.540;2023-12-20T02:42:20;9.93;;;4.67;;
16189;SDS011;41754;51.498;7.540;2023-12-20T02:44:48;12.87;;;5.33;;
16189;SDS011;41754;51.498;7.540;2023-12-20T02:47:16;11.03;;;4.83;;
16189;SDS011;41754;51.498;7.540;2023-12-20T02:49:44;13.83;;;5.57;;
16189;SDS011;41754;51.498;7.540;2023-12-20T02:52:12;15.37;;;5.90;;
16189;SDS011;41754;51.498;7.540;2023-12-20T02:54:40;10.20;;;5.37;;
16189;SDS011;41754;51.498;7.540;2023-12-20T02:57:09;13.20;;;5.30;;
16189;SDS011;41754;51.498;7.540;2023-12-20T02:59:38;15.07;;;4.77;;
16189;SDS011;41754;51.498;7.540;2023-12-20T03:02:05;9.80;;;4.30;;
16189;SDS011;41754;51.498;7.540;2023-12-20T03:04:34;11.13;;;5.07;;
16189;SDS011;41754;51.498;7.540;2023-12-20T03:07:03;12.23;;;5.40;;
16189;SDS011;41754;51.498;7.540;2023-12-20T03:09:31;11.50;;;5.30;;
16189;SDS011;41754;51.498;7.540;2023-12-20T03:12:20;11.73;;;5.03;;
16189;SDS011;41754;51.498;7.540;2023-12-20T03:14:49;14.33;;;5.07;;
16189;SDS011;41754;51.498;7.540;2023-12-20T03:17:17;11.90;;;4.97;;
16189;SDS011;41754;51.498;7.540;2023-12-20T03:19:45;10.40;;;4.97;;
16189;SDS011;41754;51.498;7.540;2023-12-20T03:22:13;13.57;;;4.90;;
16189;SDS011;41754;51.498;7.540;2023-12-20T03:24:41;11.67;;;5.33;;
16189;SDS011;41754;51.498;7.540;2023-12-20T03:27:09;13.23;;;6.17;;
16189;SDS011;41754;51.498;7.540;2023-12-20T03:29:38;12.13;;;5.43;;
16189;SDS011;41754;51.498;7.540;2023-12-20T03:32:06;17.17;;;6.57;;
16189;SDS011;41754;51.498;7.540;2023-12-20T03:34:35;12.70;;;5.87;;
16189;SDS011;41754;51.498;7.540;2023-12-20T03:37:03;11.60;;;6.23;;
16189;SDS011;41754;51.498;7.540;2023-12-20T03:39:31;13.23;;;6.13;;
16189;SDS011;41754;51.498;7.540;2023-12-20T03:41:59;12.67;;;5.80;;
16189;SDS011;41754;51.498;7.540;2023-12-20T03:44:27;11.80;;;5.37;;
16189;SDS011;41754;51.498;7.540;2023-12-20T03:46:56;8.70;;;5.60;;
16189;SDS011;41754;51.498;7.540;2023-12-20T03:49:24;12.33;;;5.50;;
16189;SDS011;41754;51.498;7.540;2023-12-20T03:51:52;13.97;;;4.87;;
16189;SDS011;41754;51.498;7.540;2023-12-20T03:54:20;15.40;;;4.83;;
16189;SDS011;41754;51.498;7.540;2023-12-20T03:56:48;12.63;;;5.30;;
16189;SDS011;41754;51.498;7.540;2023-12-20T03:59:16;14.07;;;6.07;;
16189;SDS011;41754;51.498;7.540;2023-12-20T04:01:45;13.03;;;6.53;;
16189;SDS011;41754;51.498;7.540;2023-12-20T04:04:14;12.80;;;6.73;;
16189;SDS011;41754;51.498;7.540;2023-12-20T04:06:43;13.07;;;6.87;;
16189;SDS011;41754;51.498;7.540;2023-12-20T04:09:11;14.50;;;7.27;;
16189;SDS011;41754;51.498;7.540;2023-12-20T04:11:39;15.33;;;7.33;;
16189;SDS011;41754;51.498;7.540;2023-12-20T04:14:08;16.50;;;7.53;;
16189;SDS011;41754;51.498;7.540;2023-12-20T04:16:36;16.80;;;7.20;;
16189;SDS011;41754;51.498;7.540;2023-12-20T04:19:05;16.33;;;7.80;;
16189;SDS011;41754;51.498;7.540;2023-12-20T04:21:34;16.23;;;7.90;;
16189;SDS011;41754;51.498;7.540;2023-12-20T04:24:02;17.73;;;7.63;;
16189;SDS011;41754;51.498;7.540;2023-12-20T04:26:31;15.47;;;6.90;;
16189;SDS011;41754;51.498;7.540;2023-12-20T04:28:59;14.77;;;6.33;;
16189;SDS011;41754;51.498;7.540;2023-12-20T04:31:27;15.60;;;6.97;;
16189;SDS011;41754;51.498;7.540;2023-12-20T04:33:54;16.93;;;6.83;;
16189;SDS011;41754;51.498;7.540;2023-12-20T04:36:22;14.27;;;6.27;;
16189;SDS011;41754;51.498;7.540;2023-12-20T04:38:52;13.03;;;5.83;;
16189;SDS011;41754;51.498;7.540;2023-12-20T04:41:20;15.00;;;6.33;;
16189;SDS011;41754;51.498;7.540;2023-12-20T04:43:48;19.63;;;6.50;;
16189;SDS011;41754;51.498;7.540;2023-12-20T04:46:16;15.40;;;6.10;;
16189;SDS011;41754;51.498;7.540;2023-12-20T04:48:44;22.43;;;7.10;;
16189;SDS011;41754;51.498;7.540;2023-12-20T04:51:12;14.50;;;5.97;;
16189;SDS011;41754;51.498;7.540;2023-12-20T04:53:40;16.80;;;7.20;;
16189;SDS011;41754;51.498;7.540;2023-12-20T04:56:10;16.73;;;6.73;;
16189;SDS011;41754;51.498;7.540;2023-12-20T04:58:39;14.87;;;6.73;;
16189;SDS011;41754;51.498;7.540;2023-12-20T05:01:08;14.23;;;7.27;;
16189;SDS011;41754;51.498;7.540;2023-12-20T05:03:36;15.80;;;7.13;;
16189;SDS011;41754;51.498;7.540;2023-12-20T05:06:05;16.27;;;6.47;;
16189;SDS011;41754;51.498;7.540;2023-12-20T05:08:33;19.07;;;7.03;;
16189;SDS011;41754;51.498;7.540;2023-12-20T05:11:00;16.70;;;7.33;;
16189;SDS011;41754;51.498;7.540;2023-12-20T05:13:30;17.57;;;7.80;;
16189;SDS011;41754;51.498;7.540;2023-12-20T05:16:10;19.33;;;7.87;;
16189;SDS011;41754;51.498;7.540;2023-12-20T05:18:40;14.90;;;7.47;;
16189;SDS011;41754;51.498;7.540;2023-12-20T05:21:08;17.67;;;8.60;;
16189;SDS011;41754;51.498;7.540;2023-12-20T05:23:36;21.73;;;8.57;;
16189;SDS011;41754;51.498;7.540;2023-12-20T05:26:04;18.47;;;7.87;;
16189;SDS011;41754;51.498;7.540;2023-12-20T05:28:34;14.63;;;7.60;;
16189;SDS011;41754;51.498;7.540;2023-12-20T05:31:02;16.97;;;7.00;;
16189;SDS011;41754;51.498;7.540;2023-12-20T05:33:30;17.07;;;7.40;;
16189;SDS011;41754;51.498;7.540;2023-12-20T05:35:58;16.57;;;7.13;;
16189;SDS011;41754;51.498;7.540;2023-12-20T05:38:26;14.90;;;6.90;;
16189;SDS011;41754;51.498;7.540;2023-12-20T05:40:54;15.43;;;6.87;;
16189;SDS011;41754;51.498;7.540;2023-12-20T05:43:22;13.40;;;8.07;;
16189;SDS011;41754;51.498;7.540;2023-12-20T05:45:52;15.47;;;7.23;;
16189;SDS011;41754;51.498;7.540;2023-12-20T05:48:20;14.00;;;6.93;;
16189;SDS011;41754;51.498;7.540;2023-12-20T05:50:48;16.47;;;7.93;;
16189;SDS011;41754;51.498;7.540;2023-12-20T05:53:16;16.63;;;8.17;;
16189;SDS011;41754;51.498;7.540;2023-12-20T05:55:43;16.90;;;7.57;;
16189;SDS011;41754;51.498;7.540;2023-12-20T05:58:11;20.43;;;8.40;;
16189;SDS011;41754;51.498;7.540;2023-12-20T06:00:39;20.93;;;7.60;;
16189;SDS011;41754;51.498;7.540;2023-12-20T06:03:09;16.07;;;7.00;;
16189;SDS011;41754;51.498;7.540;2023-12-20T06:05:37;15.63;;;7.70;;
16189;SDS011;41754;51.498;7.540;2023-12-20T06:08:05;16.20;;;6.80;;
16189;SDS011;41754;51.498;7.540;2023-12-20T06:10:33;14.63;;;7.53;;
16189;SDS011;41754;51.498;7.540;2023-12-20T06:13:01;17.87;;;8.10;;
16189;SDS011;41754;51.498;7.540;2023-12-20T06:15:30;20.83;;;8.03;;
16189;SDS011;41754;51.498;7.540;2023-12-20T06:17:58;13.17;;;7.10;;
16189;SDS011;41754;51.498;7.540;2023-12-20T06:20:28;19.33;;;7.07;;
16189;SDS011;41754;51.498;7.540;2023-12-20T06:22:55;16.43;;;8.13;;
16189;SDS011;41754;51.498;7.540;2023-12-20T06:25:23;18.10;;;8.50;;
16189;SDS011;41754;51.498;7.540;2023-12-20T06:27:51;14.50;;;8.10;;
16189;SDS011;41754;51.498;7.540;2023-12-20T06:30:19;20.83;;;8.63;;
16189;SDS011;41754;51.498;7.540;2023-12-20T06:32:47;16.80;;;8.73;;
16189;SDS011;41754;51.498;7.540;2023-12-20T06:35:15;18.00;;;8.57;;
16189;SDS011;41754;51.498;7.540;2023-12-20T06:37:45;21.83;;;8.80;;
16189;SDS011;41754;51.498;7.540;2023-12-20T06:40:13;14.83;;;8.47;;
16189;SDS011;41754;51.498;7.540;2023-12-20T06:42:44;17.23;;;8.73;;
16189;SDS011;41754;51.498;7.540;2023-12-20T06:45:27;26.77;;;10.07;;
16189;SDS011;41754;51.498;7.540;2023-12-20T06:47:55;17.37;;;8.67;;
16189;SDS011;41754;51.498;7.540;2023-12-20T06:50:23;20.07;;;9.63;;
16189;SDS011;41754;51.498;7.540;2023-12-20T06:52:53;15.67;;;9.13;;
16189;SDS011;41754;51.498;7.540;2023-12-20T06:55:21;19.27;;;8.77;;
16189;SDS011;41754;51.498;7.540;2023-12-20T06:57:49;21.70;;;8.67;;
16189;SDS011;41754;51.498;7.540;2023-12-20T07:00:17;21.37;;;9.13;;
16189;SDS011;41754;51.498;7.540;2023-12-20T07:02:47;16.90;;;7.80;;
16189;SDS011;41754;51.498;7.540;2023-12-20T07:05:16;20.37;;;9.03;;
16189;SDS011;41754;51.498;7.540;2023-12-20T07:07:46;19.13;;;8.20;;
16189;SDS011;41754;51.498;7.540;2023-12-20T07:10:16;18.23;;;7.80;;
16189;SDS011;41754;51.498;7.540;2023-12-20T07:12:44;15.87;;;7.67;;
16189;SDS011;41754;51.498;7.540;2023-12-20T07:15:12;18.43;;;8.20;;
16189;SDS011;41754;51.498;7.540;2023-12-20T07:17:40;17.47;;;7.37;;
16189;SDS011;41754;51.498;7.540;2023-12-20T07:20:09;19.13;;;8.70;;
16189;SDS011;41754;51.498;7.540;2023-12-20T07:22:38;23.47;;;8.13;;
16189;SDS011;41754;51.498;7.540;2023-12-20T07:25:06;16.33;;;7.60;;
16189;SDS011;41754;51.498;7.540;2023-12-20T07:27:36;14.60;;;7.90;;
16189;SDS011;41754;51.498;7.540;2023-12-20T07:30:06;19.57;;;7.23;;
16189;SDS011;41754;51.498;7.540;2023-12-20T07:32:35;19.47;;;6.80;;
16189;SDS011;41754;51.498;7.540;2023-12-20T07:35:03;14.03;;;6.87;;
16189;SDS011;41754;51.498;7.540;2023-12-20T07:37:32;15.20;;;6.63;;
16189;SDS011;41754;51.498;7.540;2023-12-20T07:40:00;21.40;;;7.27;;
16189;SDS011;41754;51.498;7.540;2023-12-20T07:42:30;16.17;;;7.00;;
16189;SDS011;41754;51.498;7.540;2023-12-20T07:44:59;16.57;;;6.30;;
16189;SDS011;41754;51.498;7.540;2023-12-20T07:47:27;17.73;;;6.30;;
16189;SDS011;41754;51.498;7.540;2023-12-20T07:49:55;16.27;;;7.20;;
16189;SDS011;41754;51.498;7.540;2023-12-20T07:52:23;19.10;;;6.30;;
16189;SDS011;41754;51.498;7.540;2023-12-20T07:54:52;23.00;;;6.60;;
16189;SDS011;41754;51.498;7.540;2023-12-20T07:57:20;13.00;;;6.33;;
16189;SDS011;41754;51.498;7.540;2023-12-20T07:59:48;17.83;;;6.33;;
16189;SDS011;41754;51.498;7.540;2023-12-20T08:02:17;17.53;;;5.87;;
16189;SDS011;41754;51.498;7.540;2023-12-20T08:04:45;19.33;;;7.40;;
16189;SDS011;41754;51.498;7.540;2023-12-20T08:07:13;20.77;;;6.87;;
16189;SDS011;41754;51.498;7.540;2023-12-20T08:09:41;14.47;;;6.33;;
16189;SDS011;41754;51.498;7.540;2023-12-20T08:12:10;16.80;;;7.00;;
16189;SDS011;41754;51.498;7.540;2023-12-20T08:14:38;17.03;;;6.80;;
16189;SDS011;41754;51.498;7.540;2023-12-20T08:17:06;15.37;;;6.37;;
16189;SDS011;41754;51.498;7.540;2023-12-20T08:19:35;16.33;;;6.47;;
16189;SDS011;41754;51.498;7.540;2023-12-20T08:22:03;15.37;;;6.00;;
16189;SDS011;41754;51.498;7.540;2023-12-20T08:24:31;13.67;;;6.00;;
16189;SDS011;41754;51.498;7.540;2023-12-20T08:26:59;20.00;;;6.20;;
16189;SDS011;41754;51.498;7.540;2023-12-20T08:29:27;14.40;;;6.27;;
16189;SDS011;41754;51.498;7.540;2023-12-20T08:31:55;14.83;;;5.90;;
16189;SDS011;41754;51.498;7.540;2023-12-20T08:34:23;17.57;;;6.57;;
16189;SDS011;41754;51.498;7.540;2023-12-20T08:36:53;15.03;;;5.97;;
16189;SDS011;41754;51.498;7.540;2023-12-20T08:39:21;13.60;;;5.90;;
16189;SDS011;41754;51.498;7.540;2023-12-20T08:41:49;13.93;;;5.70;;
16189;SDS011;41754;51.498;7.540;2023-12-20T08:44:17;17.47;;;6.13;;
16189;SDS011;41754;51.498;7.540;2023-12-20T08:46:45;12.87;;;5.70;;
16189;SDS011;41754;51.498;7.540;2023-12-20T08:49:13;15.93;;;6.17;;
16189;SDS011;41754;51.498;7.540;2023-12-20T08:51:41;19.03;;;6.47;;
16189;SDS011;41754;51.498;7.540;2023-12-20T08:54:10;12.27;;;6.07;;
16189;SDS011;41754;51.498;7.540;2023-12-20T08:56:39;19.03;;;7.03;;
16189;SDS011;41754;51.498;7.540;2023-12-20T08:59:07;16.47;;;6.37;;
16189;SDS011;41754;51.498;7.540;2023-12-20T09:01:35;18.37;;;6.83;;
16189;SDS011;41754;51.498;7.540;2023-12-20T09:04:03;18.23;;;7.17;;
16189;SDS011;41754;51.498;7.540;2023-12-20T09:06:32;13.10;;;6.00;;
16189;SDS011;41754;51.498;7.540;2023-12-20T09:09:00;18.37;;;5.93;;
16189;SDS011;41754;51.498;7.540;2023-12-20T09:11:30;14.83;;;5.67;;
16189;SDS011;41754;51.498;7.540;2023-12-20T09:13:58;14.57;;;5.67;;
16189;SDS011;41754;51.498;7.540;2023-12-20T09:16:26;13.90;;;6.07;;
16189;SDS011;41754;51.498;7.540;2023-12-20T09:18:54;14.30;;;5.87;;
16189;SDS011;41754;51.498;7.540;2023-12-20T09:21:22;18.23;;;6.20;;
16189;SDS011;41754;51.498;7.540;2023-12-20T09:23:50;17.00;;;6.00;;
16189;SDS011;41754;51.498;7.540;2023-12-20T09:26:18;18.47;;;6.40;;
16189;SDS011;41754;51.498;7.540;2023-12-20T09:28:48;16.83;;;6.23;;
16189;SDS011;41754;51.498;7.540;2023-12-20T09:31:16;15.40;;;6.00;;
16189;SDS011;41754;51.498;7.540;2023-12-20T09:33:44;15.13;;;5.10;;
16189;SDS011;41754;51.498;7.540;2023-12-20T09:36:12;19.23;;;5.70;;
16189;SDS011;41754;51.498;7.540;2023-12-20T09:38:40;15.03;;;5.17;;
16189;SDS011;41754;51.498;7.540;2023-12-20T09:41:12;13.87;;;5.23;;
16189;SDS011;41754;51.498;7.540;2023-12-20T09:43:41;13.87;;;5.47;;
16189;SDS011;41754;51.498;7.540;2023-12-20T09:46:11;21.63;;;5.97;;
16189;SDS011;41754;51.498;7.540;2023-12-20T09:48:43;15.13;;;5.77;;
16189;SDS011;41754;51.498;7.540;2023-12-20T09:51:12;16.90;;;5.57;;
16189;SDS011;41754;51.498;7.540;2023-12-20T09:53:40;18.53;;;5.53;;
16189;SDS011;41754;51.498;7.540;2023-12-20T09:56:10;13.67;;;4.60;;
16189;SDS011;41754;51.498;7.540;2023-12-20T09:58:39;14.07;;;5.30;;
16189;SDS011;41754;51.498;7.540;2023-12-20T10:01:07;15.43;;;5.10;;
16189;SDS011;41754;51.498;7.540;2023-12-20T10:03:37;21.27;;;5.60;;
16189;SDS011;41754;51.498;7.540;2023-12-20T10:06:08;13.97;;;5.17;;
16189;SDS011;41754;51.498;7.540;2023-12-20T10:08:38;13.90;;;5.40;;
16189;SDS011;41754;51.498;7.540;2023-12-20T10:11:06;14.97;;;5.10;;
16189;SDS011;41754;51.498;7.540;2023-12-20T10:13:34;13.37;;;5.30;;
16189;SDS011;41754;51.498;7.540;2023-12-20T10:16:07;16.97;;;5.47;;
16189;SDS011;41754;51.498;7.540;2023-12-20T10:18:37;14.20;;;5.33;;
16189;SDS011;41754;51.498;7.540;2023-12-20T10:21:06;16.63;;;5.47;;
16189;SDS011;41754;51.498;7.540;2023-12-20T10:23:36;14.10;;;4.93;;
16189;SDS011;41754;51.498;7.540;2023-12-20T10:26:05;15.83;;;5.57;;
16189;SDS011;41754;51.498;7.540;2023-12-20T10:28:33;19.17;;;5.20;;
16189;SDS011;41754;51.498;7.540;2023-12-20T10:31:02;18.43;;;5.33;;
16189;SDS011;41754;51.498;7.540;2023-12-20T10:33:30;15.07;;;5.37;;
16189;SDS011;41754;51.498;7.540;2023-12-20T10:36:01;14.83;;;4.60;;
16189;SDS011;41754;51.498;7.540;2023-12-20T10:38:29;15.93;;;5.40;;
16189;SDS011;41754;51.498;7.540;2023-12-20T10:40:57;14.00;;;4.70;;
16189;SDS011;41754;51.498;7.540;2023-12-20T10:43:26;17.00;;;4.93;;
16189;SDS011;41754;51.498;7.540;2023-12-20T10:45:56;19.10;;;4.87;;
16189;SDS011;41754;51.498;7.540;2023-12-20T10:48:24;13.50;;;4.60;;
16189;SDS011;41754;51.498;7.540;2023-12-20T10:50:56;15.03;;;5.33;;
16189;SDS011;41754;51.498;7.540;2023-12-20T10:53:26;12.17;;;4.37;;
16189;SDS011;41754;51.498;7.540;2023-12-20T10:55:55;19.33;;;5.23;;
16189;SDS011;41754;51.498;7.540;2023-12-20T10:58:24;18.80;;;5.03;;
16189;SDS011;41754;51.498;7.540;2023-12-20T11:00:57;14.30;;;5.37;;
16189;SDS011;41754;51.498;7.540;2023-12-20T11:03:29;16.93;;;5.53;;
16189;SDS011;41754;51.498;7.540;2023-12-20T11:06:03;17.37;;;5.67;;
16189;SDS011;41754;51.498;7.540;2023-12-20T11:08:44;17.77;;;6.13;;
16189;SDS011;41754;51.498;7.540;2023-12-20T11:11:19;12.93;;;4.77;;
16189;SDS011;41754;51.498;7.540;2023-12-20T11:13:54;13.33;;;5.67;;
16189;SDS011;41754;51.498;7.540;2023-12-20T11:16:26;10.57;;;5.07;;
16189;SDS011;41754;51.498;7.540;2023-12-20T11:19:07;15.03;;;5.30;;
16189;SDS011;41754;51.498;7.540;2023-12-20T11:21:34;15.67;;;5.30;;
16189;SDS011;41754;51.498;7.540;2023-12-20T11:24:04;12.73;;;5.10;;
16189;SDS011;41754;51.498;7.540;2023-12-20T11:26:33;11.20;;;5.00;;
16189;SDS011;41754;51.498;7.540;2023-12-20T11:31:57;17.40;;;5.20;;
16189;SDS011;41754;51.498;7.540;2023-12-20T11:34:27;15.20;;;4.93;;
16189;SDS011;41754;51.498;7.540;2023-12-20T11:36:59;12.53;;;5.13;;
16189;SDS011;41754;51.498;7.540;2023-12-20T11:39:29;12.17;;;5.03;;
16189;SDS011;41754;51.498;7.540;2023-12-20T11:42:03;14.27;;;4.83;;
16189;SDS011;41754;51.498;7.540;2023-12-20T11:44:32;16.27;;;5.63;;
16189;SDS011;41754;51.498;7.540;2023-12-20T11:47:00;13.87;;;5.00;;
16189;SDS011;41754;51.498;7.540;2023-12-20T11:49:28;15.03;;;5.37;;
16189;SDS011;41754;51.498;7.540;2023-12-20T11:51:57;14.57;;;5.80;;
16189;SDS011;41754;51.498;7.540;2023-12-20T11:54:26;9.70;;;5.10;;
16189;SDS011;41754;51.498;7.540;2023-12-20T11:56:56;17.00;;;5.63;;
16189;SDS011;41754;51.498;7.540;2023-12-20T11:59:24;13.43;;;5.53;;
16189;SDS011;41754;51.498;7.540;2023-12-20T12:01:52;13.73;;;5.13;;
16189;SDS011;41754;51.498;7.540;2023-12-20T12:04:22;13.77;;;5.20;;
16189;SDS011;41754;51.498;7.540;2023-12-20T12:06:50;12.43;;;5.60;;
16189;SDS011;41754;51.498;7.540;2023-12-20T12:09:18;13.93;;;5.60;;
16189;SDS011;41754;51.498;7.540;2023-12-20T12:11:46;13.57;;;5.73;;
16189;SDS011;41754;51.498;7.540;2023-12-20T12:14:16;10.90;;;5.80;;
16189;SDS011;41754;51.498;7.540;2023-12-20T12:16:45;12.87;;;5.70;;
16189;SDS011;41754;51.498;7.540;2023-12-20T12:19:22;16.80;;;6.50;;
16189;SDS011;41754;51.498;7.540;2023-12-20T12:21:51;16.77;;;6.13;;
16189;SDS011;41754;51.498;7.540;2023-12-20T12:24:31;16.70;;;6.03;;
16189;SDS011;41754;51.498;7.540;2023-12-20T12:26:59;16.93;;;7.17;;
16189;SDS011;41754;51.498;7.540;2023-12-20T12:29:28;18.83;;;6.87;;
16189;SDS011;41754;51.498;7.540;2023-12-20T12:31:56;14.40;;;6.43;;
16189;SDS011;41754;51.498;7.540;2023-12-20T12:34:24;15.83;;;7.17;;
16189;SDS011;41754;51.498;7.540;2023-12-20T12:36:55;16.93;;;7.50;;
16189;SDS011;41754;51.498;7.540;2023-12-20T12:39:23;15.43;;;7.33;;
16189;SDS011;41754;51.498;7.540;2023-12-20T12:41:52;18.23;;;7.13;;
16189;SDS011;41754;51.498;7.540;2023-12-20T12:44:20;14.23;;;6.67;;
16189;SDS011;41754;51.498;7.540;2023-12-20T12:46:51;16.73;;;7.10;;
16189;SDS011;41754;51.498;7.540;2023-12-20T12:49:20;16.30;;;6.90;;
16189;SDS011;41754;51.498;7.540;2023-12-20T12:51:48;18.27;;;7.80;;
16189;SDS011;41754;51.498;7.540;2023-12-20T12:54:16;18.40;;;7.80;;
16189;SDS011;41754;51.498;7.540;2023-12-20T12:56:44;17.10;;;7.27;;
16189;SDS011;41754;51.498;7.540;2023-12-20T12:59:14;16.60;;;7.00;;
16189;SDS011;41754;51.498;7.540;2023-12-20T13:01:41;18.87;;;7.43;;
16189;SDS011;41754;51.498;7.540;2023-12-20T13:04:10;16.10;;;6.90;;
16189;SDS011;41754;51.498;7.540;2023-12-20T13:06:38;16.83;;;7.20;;
16189;SDS011;41754;51.498;7.540;2023-12-20T13:09:07;24.13;;;8.80;;
16189;SDS011;41754;51.498;7.540;2023-12-20T13:11:36;16.13;;;6.30;;
16189;SDS011;41754;51.498;7.540;2023-12-20T13:14:04;13.83;;;6.67;;
16189;SDS011;41754;51.498;7.540;2023-12-20T13:16:32;17.17;;;6.47;;
16189;SDS011;41754;51.498;7.540;2023-12-20T13:19:00;17.10;;;7.27;;
16189;SDS011;41754;51.498;7.540;2023-12-20T13:21:30;13.03;;;6.30;;
16189;SDS011;41754;51.498;7.540;2023-12-20T13:23:58;14.83;;;6.03;;
16189;SDS011;41754;51.498;7.540;2023-12-20T13:26:26;11.30;;;6.10;;
16189;SDS011;41754;51.498;7.540;2023-12-20T13:28:54;14.43;;;5.43;;
16189;SDS011;41754;51.498;7.540;2023-12-20T13:31:22;18.80;;;6.97;;
16189;SDS011;41754;51.498;7.540;2023-12-20T13:33:50;13.07;;;6.10;;
16189;SDS011;41754;51.498;7.540;2023-12-20T13:36:19;17.40;;;6.40;;
16189;SDS011;41754;51.498;7.540;2023-12-20T13:38:48;16.67;;;6.40;;
16189;SDS011;41754;51.498;7.540;2023-12-20T13:41:16;15.80;;;6.43;;
16189;SDS011;41754;51.498;7.540;2023-12-20T13:43:44;15.90;;;6.40;;
16189;SDS011;41754;51.498;7.540;2023-12-20T13:46:12;14.67;;;6.60;;
16189;SDS011;41754;51.498;7.540;2023-12-20T13:48:40;16.20;;;6.87;;
16189;SDS011;41754;51.498;7.540;2023-12-20T13:51:08;16.30;;;7.17;;
16189;SDS011;41754;51.498;7.540;2023-12-20T13:53:36;16.47;;;6.80;;
16189;SDS011;41754;51.498;7.540;2023-12-20T13:56:06;14.67;;;6.37;;
16189;SDS011;41754;51.498;7.540;2023-12-20T13:58:34;12.97;;;6.57;;
16189;SDS011;41754;51.498;7.540;2023-12-20T14:01:04;11.43;;;6.40;;
16189;SDS011;41754;51.498;7.540;2023-12-20T14:03:32;12.97;;;6.30;;
16189;SDS011;41754;51.498;7.540;2023-12-20T14:05:59;11.83;;;6.00;;
16189;SDS011;41754;51.498;7.540;2023-12-20T14:08:27;10.10;;;5.50;;
16189;SDS011;41754;51.498;7.540;2023-12-20T14:10:55;12.97;;;6.07;;
16189;SDS011;41754;51.498;7.540;2023-12-20T14:13:24;12.87;;;5.53;;
16189;SDS011;41754;51.498;7.540;2023-12-20T14:15:52;11.60;;;5.07;;
16189;SDS011;41754;51.498;7.540;2023-12-20T14:18:21;12.93;;;4.80;;
16189;SDS011;41754;51.498;7.540;2023-12-20T14:20:49;12.70;;;5.30;;
16189;SDS011;41754;51.498;7.540;2023-12-20T14:23:17;10.00;;;5.30;;
16189;SDS011;41754;51.498;7.540;2023-12-20T14:25:45;8.13;;;4.90;;
16189;SDS011;41754;51.498;7.540;2023-12-20T14:28:18;8.43;;;4.80;;
16189;SDS011;41754;51.498;7.540;2023-12-20T14:30:47;8.77;;;4.93;;
16189;SDS011;41754;51.498;7.540;2023-12-20T14:33:16;14.27;;;6.00;;
16189;SDS011;41754;51.498;7.540;2023-12-20T14:35:46;10.60;;;5.60;;
16189;SDS011;41754;51.498;7.540;2023-12-20T14:38:14;11.33;;;5.40;;
16189;SDS011;41754;51.498;7.540;2023-12-20T14:40:42;10.43;;;5.10;;
16189;SDS011;41754;51.498;7.540;2023-12-20T14:43:10;8.13;;;5.07;;
16189;SDS011;41754;51.498;7.540;2023-12-20T14:45:38;10.47;;;4.93;;